Eurasian Highway — 7JKY — position and weather

sailwx.info

Track history (hours):
 
Tides and Currents Weather Stations Pressure Air Temp Water Temp Dewpoint Dewpoint Depression Visibility Wind Speed Wind Dir Waves Ship Positions

Eurasian Highway

Last reported at 2016-Dec-09 06:32 UTC. Time now 2016-Dec-11 00:22 UTC.
Position N 37°42' W 030°09'.

Length 199 m; draft 9.7 m.

Type: Cargo ship. MMSI: 432839000.

Date/timePositionNaut miles runAvg speedWind from/ knotsBaromVisibWave heightAir tempDewpointWater temp
2016-Dec-09 06:32N 37°42' W 030°09'1616.0
2016-Dec-09 05:33N 37°46' W 029°49'1616.1
2016-Dec-09 04:33N 37°51' W 029°30'1515.4
2016-Dec-09 03:33N 37°55' W 029°11'1515.1
2016-Dec-09 02:34N 37°59' W 028°53'1514.7
2016-Dec-09 01:33N 38°03' W 028°35'1514.8
2016-Dec-09 00:33N 38°08' W 028°17'1514.6
2016-Dec-08 23:34N 38°12' W 027°59'1615.5
2016-Dec-08 22:33N 38°18' W 027°41'1313.4
2016-Dec-08 21:34N 38°22' W 027°25'1413.8
2016-Dec-08 20:33N 38°28' W 027°09'1413.9
2016-Dec-08 19:33N 38°33' W 026°52'1414.5
2016-Dec-08 18:34N 38°40' W 026°36'1414.3
2016-Dec-08 17:33N 38°47' W 026°20'1514.6
2016-Dec-08 16:33N 38°55' W 026°04'  
2016-Dec-05 18:15N 48°47' W 006°28'1316.8
2016-Dec-05 17:30N 48°54' W 006°13'1616.9
2016-Dec-05 16:33N 49°03' W 005°52'7317.8
2016-Dec-05 12:27N 49°44' W 004°19'1718.2
2016-Dec-05 11:32N 49°53' W 003°58'1717.8
2016-Dec-05 10:34N 49°59' W 003°33'1717.3
2016-Dec-05 09:34N 50°05' W 003°08'1817.6
2016-Dec-05 08:34N 50°11' W 002°42'2018.5
2016-Dec-05 07:27N 50°18' W 002°12'1719.5
2016-Dec-05 06:33N 50°24' W 001°46'2020.3
2016-Dec-05 05:34N 50°31' W 001°16'1515.3
2016-Dec-05 04:33N 50°41' W 000°58'1111.1
2016-Dec-05 03:33N 50°46' W 001°14'8 8.4
2016-Dec-05 02:33N 50°52' W 001°23'2 2.3
2016-Dec-05 01:31N 50°54' W 001°25'0 0.0
2016-Dec-05 00:31N 50°54' W 001°25'0 0.0
2016-Dec-04 23:28N 50°54' W 001°25'0 0.0
2016-Dec-04 22:31N 50°54' W 001°25'0 0.0
2016-Dec-04 21:31N 50°54' W 001°25'0 0.0
2016-Dec-04 20:28N 50°54' W 001°25'0 0.0
2016-Dec-04 19:31N 50°54' W 001°25'0 0.0
2016-Dec-04 18:31N 50°54' W 001°25'0 0.0
2016-Dec-04 17:31N 50°54' W 001°25'0 0.0
2016-Dec-04 16:31N 50°54' W 001°25'0 0.0
2016-Dec-04 15:31N 50°54' W 001°25'0 0.0
2016-Dec-04 14:28N 50°54' W 001°25'0 0.0
2016-Dec-04 13:31N 50°54' W 001°25'0 0.0
2016-Dec-04 12:31N 50°54' W 001°25'0 0.0
2016-Dec-04 11:28N 50°54' W 001°25'0 0.0
2016-Dec-04 10:31N 50°54' W 001°25'0 0.0
2016-Dec-04 09:31N 50°54' W 001°25'0 0.0
2016-Dec-04 08:31N 50°54' W 001°25'0 0.0
2016-Dec-04 07:31N 50°54' W 001°25'0 0.0
2016-Dec-04 06:31N 50°54' W 001°25'0 0.0
2016-Dec-04 05:31N 50°54' W 001°25'0 0.0
2016-Dec-04 04:28N 50°54' W 001°25'1 1.1
2016-Dec-04 03:33N 50°53' W 001°24'0 0.0
2016-Dec-04 02:33N 50°53' W 001°24'0 0.0
2016-Dec-04 01:33N 50°53' W 001°24'0 0.0
2016-Dec-04 00:33N 50°53' W 001°24'0 0.0
2016-Dec-03 23:33N 50°53' W 001°24'0 0.0
2016-Dec-03 22:33N 50°53' W 001°24'0 0.0
2016-Dec-03 21:33N 50°53' W 001°24'0 0.0
2016-Dec-03 20:30N 50°53' W 001°24'0 0.0
2016-Dec-03 19:33N 50°53' W 001°24'0 0.0
2016-Dec-03 18:30N 50°53' W 001°24'0 0.0
2016-Dec-03 17:33N 50°53' W 001°24'0 0.0
2016-Dec-03 16:33N 50°53' W 001°24'0 0.0
2016-Dec-03 15:33N 50°53' W 001°24'0 0.0
2016-Dec-03 14:33N 50°53' W 001°24'0 0.0
2016-Dec-03 13:33N 50°53' W 001°24'0 0.0
2016-Dec-03 12:33N 50°53' W 001°24'0 0.0
2016-Dec-03 11:33N 50°53' W 001°24'5 5.5
2016-Dec-03 10:33N 50°49' W 001°18'10 9.9
2016-Dec-03 09:33N 50°44' W 001°05'9 9.1
2016-Dec-03 08:33N 50°39' W 000°53'8 7.9
2016-Dec-03 07:33N 50°35' W 000°43'1414.4
2016-Dec-03 06:34N 50°32' W 000°21'1818.4
2016-Dec-03 05:33N 50°33' E 000°08'2219.0
2016-Dec-03 04:25N 50°41' E 000°40'1618.1
2016-Dec-03 03:31N 50°50' E 001°02'1616.7
2016-Dec-03 02:33N 51°01' E 001°20'1615.8
2016-Dec-03 01:34N 51°10' E 001°41'1615.9
2016-Dec-03 00:33N 51°24' E 001°54'1818.0
2016-Dec-02 23:33N 51°37' E 002°14'1918.9
2016-Dec-02 22:33N 51°51' E 002°35'9118.2
2016-Dec-02 17:33N 53°02' E 004°08'1716.8
2016-Dec-02 16:33N 53°15' E 004°26'13016.2
2016-Dec-02 08:33N 53°52' E 007°55'1515.0
2016-Dec-02 07:33N 53°43' E 008°16'1313.1
2016-Dec-02 06:33N 53°34' E 008°32'1 0.6
2016-Dec-02 05:33N 53°35' E 008°33'0 0.1
2016-Dec-02 04:32N 53°35' E 008°33'0 0.0
2016-Dec-02 03:32N 53°35' E 008°33'0 0.0
2016-Dec-02 02:32N 53°35' E 008°33'0 0.0
2016-Dec-02 01:32N 53°35' E 008°33'0 0.0
2016-Dec-02 00:32N 53°35' E 008°33'0 0.0
2016-Dec-01 23:32N 53°35' E 008°33'0 0.0
2016-Dec-01 22:32N 53°35' E 008°33'0 0.0
2016-Dec-01 21:32N 53°35' E 008°33'0 0.0
2016-Dec-01 20:32N 53°35' E 008°33'0 0.0
2016-Dec-01 19:32N 53°35' E 008°33'0 0.0
2016-Dec-01 18:32N 53°35' E 008°33'0 0.0
2016-Dec-01 17:32N 53°35' E 008°33'0 0.0
2016-Dec-01 16:32N 53°35' E 008°33'0 0.0
2016-Dec-01 15:32N 53°35' E 008°33'0 0.0
2016-Dec-01 14:32N 53°35' E 008°33'0 0.0
2016-Dec-01 13:32N 53°35' E 008°33'0 0.0
2016-Dec-01 12:32N 53°35' E 008°33'0 0.0
2016-Dec-01 11:32N 53°35' E 008°33'0 0.0
2016-Dec-01 10:29N 53°35' E 008°33'0 0.0
2016-Dec-01 09:32N 53°35' E 008°33'0 0.0
2016-Dec-01 08:32N 53°35' E 008°33'0 0.0
2016-Dec-01 07:33N 53°35' E 008°33'0 0.0
2016-Dec-01 06:32N 53°35' E 008°33'0 0.0
2016-Dec-01 05:32N 53°35' E 008°33'0 0.0
2016-Dec-01 04:32N 53°35' E 008°33'0 0.0
2016-Dec-01 03:32N 53°35' E 008°33'0 0.0
2016-Dec-01 02:32N 53°35' E 008°33'0 0.0
2016-Dec-01 01:32N 53°35' E 008°33'0 0.0
2016-Dec-01 00:32N 53°35' E 008°33'1 1.2
2016-Nov-30 23:33N 53°34' E 008°34'2 1.6
2016-Nov-30 22:33N 53°35' E 008°32'10 9.8
2016-Nov-30 21:33N 53°42' E 008°20'1111.1
2016-Nov-30 20:33N 53°49' E 008°06'1313.3
2016-Nov-30 19:33N 53°53' E 007°45'3717.4
2016-Nov-30 17:27N 53°47' E 006°43'1716.9
2016-Nov-30 16:25N 53°42' E 006°14'1417.0
2016-Nov-30 15:33N 53°39' E 005°51'1716.9
2016-Nov-30 14:33N 53°33' E 005°24'1716.6
2016-Nov-30 13:33N 53°28' E 004°58'3316.3
2016-Nov-30 11:33N 53°02' E 004°24'1717.2
2016-Nov-30 10:33N 52°47' E 004°10'1717.0
2016-Nov-30 09:33N 52°34' E 003°52'2117.0
2016-Nov-30 08:19N 52°19' E 003°28'1917.1
2016-Nov-30 07:13N 52°06' E 003°06'1317.6
2016-Nov-30 06:27N 51°56' E 002°51'1617.9
2016-Nov-30 05:32N 51°40' E 002°43'1515.8
2016-Nov-30 04:33N 51°25' E 002°45'1413.8
2016-Nov-30 03:33N 51°24' E 003°07'6 5.4
2016-Nov-30 02:32N 51°20' E 003°13'1 1.4
2016-Nov-30 01:34N 51°19' E 003°13'0 0.0
2016-Nov-30 00:34N 51°19' E 003°13'0 0.0
2016-Nov-29 23:34N 51°19' E 003°13'0 0.0
2016-Nov-29 22:34N 51°19' E 003°13'0 0.0
2016-Nov-29 21:34N 51°19' E 003°13'0 0.0
2016-Nov-29 20:34N 51°19' E 003°13'0 0.0
2016-Nov-29 19:33N 51°19' E 003°13'0 0.0
2016-Nov-29 18:34N 51°19' E 003°13'0 0.0
2016-Nov-29 17:34N 51°19' E 003°13'0 0.0
2016-Nov-29 16:34N 51°19' E 003°13'0 0.0
2016-Nov-29 15:33N 51°19' E 003°13'0 0.0
2016-Nov-29 14:34N 51°19' E 003°13'0 0.0
2016-Nov-29 13:34N 51°19' E 003°13'1 1.3
2016-Nov-29 12:34N 51°20' E 003°13'1 0.7
2016-Nov-29 11:33N 51°21' E 003°13'1111.0
2016-Nov-29 10:33N 51°22' E 002°55'1212.0
2016-Nov-29 09:33N 51°22' E 002°36'1413.6
2016-Nov-29 08:33N 51°18' E 002°15'1615.9
2016-Nov-29 07:34N 51°09' E 001°54'1515.2
2016-Nov-29 06:34N 50°59' E 001°35'  
Track history (hours):
 
Tides and Currents Weather Stations Pressure Air Temp Water Temp Dewpoint Dewpoint Depression Visibility Wind Speed Wind Dir Waves Ship Positions

Eurasian Highway

Last reported at 2016-Dec-09 06:32 UTC. Time now 2016-Dec-11 00:22 UTC.
Position N 37°42' W 030°09'.

Length 199 m; draft 9.7 m.

Type: Cargo ship. MMSI: 432839000.

Date/timePositionNaut miles runAvg speedWind from/ knotsBaromVisibWave heightAir tempDewpointWater temp
2016-Dec-09 06:32N 37°42' W 030°09'1616.0
2016-Dec-09 05:33N 37°46' W 029°49'1616.1
2016-Dec-09 04:33N 37°51' W 029°30'1515.4
2016-Dec-09 03:33N 37°55' W 029°11'1515.1
2016-Dec-09 02:34N 37°59' W 028°53'1514.7
2016-Dec-09 01:33N 38°03' W 028°35'1514.8
2016-Dec-09 00:33N 38°08' W 028°17'1514.6
2016-Dec-08 23:34N 38°12' W 027°59'1615.5
2016-Dec-08 22:33N 38°18' W 027°41'1313.4
2016-Dec-08 21:34N 38°22' W 027°25'1413.8
2016-Dec-08 20:33N 38°28' W 027°09'1413.9
2016-Dec-08 19:33N 38°33' W 026°52'1414.5
2016-Dec-08 18:34N 38°40' W 026°36'1414.3
2016-Dec-08 17:33N 38°47' W 026°20'1514.6
2016-Dec-08 16:33N 38°55' W 026°04'  
2016-Dec-05 18:15N 48°47' W 006°28'1316.8
2016-Dec-05 17:30N 48°54' W 006°13'1616.9
2016-Dec-05 16:33N 49°03' W 005°52'7317.8
2016-Dec-05 12:27N 49°44' W 004°19'1718.2
2016-Dec-05 11:32N 49°53' W 003°58'1717.8
2016-Dec-05 10:34N 49°59' W 003°33'1717.3
2016-Dec-05 09:34N 50°05' W 003°08'1817.6
2016-Dec-05 08:34N 50°11' W 002°42'2018.5
2016-Dec-05 07:27N 50°18' W 002°12'1719.5
2016-Dec-05 06:33N 50°24' W 001°46'2020.3
2016-Dec-05 05:34N 50°31' W 001°16'1515.3
2016-Dec-05 04:33N 50°41' W 000°58'1111.1
2016-Dec-05 03:33N 50°46' W 001°14'8 8.4
2016-Dec-05 02:33N 50°52' W 001°23'2 2.3
2016-Dec-05 01:31N 50°54' W 001°25'0 0.0
2016-Dec-05 00:31N 50°54' W 001°25'0 0.0
2016-Dec-04 23:28N 50°54' W 001°25'0 0.0
2016-Dec-04 22:31N 50°54' W 001°25'0 0.0
2016-Dec-04 21:31N 50°54' W 001°25'0 0.0
2016-Dec-04 20:28N 50°54' W 001°25'0 0.0
2016-Dec-04 19:31N 50°54' W 001°25'0 0.0
2016-Dec-04 18:31N 50°54' W 001°25'0 0.0
2016-Dec-04 17:31N 50°54' W 001°25'0 0.0
2016-Dec-04 16:31N 50°54' W 001°25'0 0.0
2016-Dec-04 15:31N 50°54' W 001°25'0 0.0
2016-Dec-04 14:28N 50°54' W 001°25'0 0.0
2016-Dec-04 13:31N 50°54' W 001°25'0 0.0
2016-Dec-04 12:31N 50°54' W 001°25'0 0.0
2016-Dec-04 11:28N 50°54' W 001°25'0 0.0
2016-Dec-04 10:31N 50°54' W 001°25'0 0.0
2016-Dec-04 09:31N 50°54' W 001°25'0 0.0
2016-Dec-04 08:31N 50°54' W 001°25'0 0.0
2016-Dec-04 07:31N 50°54' W 001°25'0 0.0
2016-Dec-04 06:31N 50°54' W 001°25'0 0.0
2016-Dec-04 05:31N 50°54' W 001°25'0 0.0
2016-Dec-04 04:28N 50°54' W 001°25'1 1.1
2016-Dec-04 03:33N 50°53' W 001°24'0 0.0
2016-Dec-04 02:33N 50°53' W 001°24'0 0.0
2016-Dec-04 01:33N 50°53' W 001°24'0 0.0
2016-Dec-04 00:33N 50°53' W 001°24'0 0.0
2016-Dec-03 23:33N 50°53' W 001°24'0 0.0
2016-Dec-03 22:33N 50°53' W 001°24'0 0.0
2016-Dec-03 21:33N 50°53' W 001°24'0 0.0
2016-Dec-03 20:30N 50°53' W 001°24'0 0.0
2016-Dec-03 19:33N 50°53' W 001°24'0 0.0
2016-Dec-03 18:30N 50°53' W 001°24'0 0.0
2016-Dec-03 17:33N 50°53' W 001°24'0 0.0
2016-Dec-03 16:33N 50°53' W 001°24'0 0.0
2016-Dec-03 15:33N 50°53' W 001°24'0 0.0
2016-Dec-03 14:33N 50°53' W 001°24'0 0.0
2016-Dec-03 13:33N 50°53' W 001°24'0 0.0
2016-Dec-03 12:33N 50°53' W 001°24'0 0.0
2016-Dec-03 11:33N 50°53' W 001°24'5 5.5
2016-Dec-03 10:33N 50°49' W 001°18'10 9.9
2016-Dec-03 09:33N 50°44' W 001°05'9 9.1
2016-Dec-03 08:33N 50°39' W 000°53'8 7.9
2016-Dec-03 07:33N 50°35' W 000°43'1414.4
2016-Dec-03 06:34N 50°32' W 000°21'1818.4
2016-Dec-03 05:33N 50°33' E 000°08'2219.0
2016-Dec-03 04:25N 50°41' E 000°40'1618.1
2016-Dec-03 03:31N 50°50' E 001°02'1616.7
2016-Dec-03 02:33N 51°01' E 001°20'1615.8
2016-Dec-03 01:34N 51°10' E 001°41'1615.9
2016-Dec-03 00:33N 51°24' E 001°54'1818.0
2016-Dec-02 23:33N 51°37' E 002°14'1918.9
2016-Dec-02 22:33N 51°51' E 002°35'9118.2
2016-Dec-02 17:33N 53°02' E 004°08'1716.8
2016-Dec-02 16:33N 53°15' E 004°26'13016.2
2016-Dec-02 08:33N 53°52' E 007°55'1515.0
2016-Dec-02 07:33N 53°43' E 008°16'1313.1
2016-Dec-02 06:33N 53°34' E 008°32'1 0.6
2016-Dec-02 05:33N 53°35' E 008°33'0 0.1
2016-Dec-02 04:32N 53°35' E 008°33'0 0.0
2016-Dec-02 03:32N 53°35' E 008°33'0 0.0
2016-Dec-02 02:32N 53°35' E 008°33'0 0.0
2016-Dec-02 01:32N 53°35' E 008°33'0 0.0
2016-Dec-02 00:32N 53°35' E 008°33'0 0.0
2016-Dec-01 23:32N 53°35' E 008°33'0 0.0
2016-Dec-01 22:32N 53°35' E 008°33'0 0.0
2016-Dec-01 21:32N 53°35' E 008°33'0 0.0
2016-Dec-01 20:32N 53°35' E 008°33'0 0.0
2016-Dec-01 19:32N 53°35' E 008°33'0 0.0
2016-Dec-01 18:32N 53°35' E 008°33'0 0.0
2016-Dec-01 17:32N 53°35' E 008°33'0 0.0
2016-Dec-01 16:32N 53°35' E 008°33'0 0.0
2016-Dec-01 15:32N 53°35' E 008°33'0 0.0
2016-Dec-01 14:32N 53°35' E 008°33'0 0.0
2016-Dec-01 13:32N 53°35' E 008°33'0 0.0
2016-Dec-01 12:32N 53°35' E 008°33'0 0.0
2016-Dec-01 11:32N 53°35' E 008°33'0 0.0
2016-Dec-01 10:29N 53°35' E 008°33'0 0.0
2016-Dec-01 09:32N 53°35' E 008°33'0 0.0
2016-Dec-01 08:32N 53°35' E 008°33'0 0.0
2016-Dec-01 07:33N 53°35' E 008°33'0 0.0
2016-Dec-01 06:32N 53°35' E 008°33'0 0.0
2016-Dec-01 05:32N 53°35' E 008°33'0 0.0
2016-Dec-01 04:32N 53°35' E 008°33'0 0.0
2016-Dec-01 03:32N 53°35' E 008°33'0 0.0
2016-Dec-01 02:32N 53°35' E 008°33'0 0.0
2016-Dec-01 01:32N 53°35' E 008°33'0 0.0
2016-Dec-01 00:32N 53°35' E 008°33'1 1.2
2016-Nov-30 23:33N 53°34' E 008°34'2 1.6
2016-Nov-30 22:33N 53°35' E 008°32'10 9.8
2016-Nov-30 21:33N 53°42' E 008°20'1111.1
2016-Nov-30 20:33N 53°49' E 008°06'1313.3
2016-Nov-30 19:33N 53°53' E 007°45'3717.4
2016-Nov-30 17:27N 53°47' E 006°43'1716.9
2016-Nov-30 16:25N 53°42' E 006°14'1417.0
2016-Nov-30 15:33N 53°39' E 005°51'1716.9
2016-Nov-30 14:33N 53°33' E 005°24'1716.6
2016-Nov-30 13:33N 53°28' E 004°58'3316.3
2016-Nov-30 11:33N 53°02' E 004°24'1717.2
2016-Nov-30 10:33N 52°47' E 004°10'1717.0
2016-Nov-30 09:33N 52°34' E 003°52'2117.0
2016-Nov-30 08:19N 52°19' E 003°28'1917.1
2016-Nov-30 07:13N 52°06' E 003°06'1317.6
2016-Nov-30 06:27N 51°56' E 002°51'1617.9
2016-Nov-30 05:32N 51°40' E 002°43'1515.8
2016-Nov-30 04:33N 51°25' E 002°45'1413.8
2016-Nov-30 03:33N 51°24' E 003°07'6 5.4
2016-Nov-30 02:32N 51°20' E 003°13'1 1.4
2016-Nov-30 01:34N 51°19' E 003°13'0 0.0
2016-Nov-30 00:34N 51°19' E 003°13'0 0.0
2016-Nov-29 23:34N 51°19' E 003°13'0 0.0
2016-Nov-29 22:34N 51°19' E 003°13'0 0.0
2016-Nov-29 21:34N 51°19' E 003°13'0 0.0
2016-Nov-29 20:34N 51°19' E 003°13'0 0.0
2016-Nov-29 19:33N 51°19' E 003°13'0 0.0
2016-Nov-29 18:34N 51°19' E 003°13'0 0.0
2016-Nov-29 17:34N 51°19' E 003°13'0 0.0
2016-Nov-29 16:34N 51°19' E 003°13'0 0.0
2016-Nov-29 15:33N 51°19' E 003°13'0 0.0
2016-Nov-29 14:34N 51°19' E 003°13'0 0.0
2016-Nov-29 13:34N 51°19' E 003°13'1 1.3
2016-Nov-29 12:34N 51°20' E 003°13'1 0.7
2016-Nov-29 11:33N 51°21' E 003°13'1111.0
2016-Nov-29 10:33N 51°22' E 002°55'1212.0
2016-Nov-29 09:33N 51°22' E 002°36'1413.6
2016-Nov-29 08:33N 51°18' E 002°15'1615.9
2016-Nov-29 07:34N 51°09' E 001°54'1515.2
2016-Nov-29 06:34N 50°59' E 001°35'  

Dump ship's entire track history